DAAG

Houari Boumediene Airport

Algiers, Algeria
METAR DAAG 201800Z 04010KT CAVOK 18/14 Q1017
Observed Flight Rules
Apr-20 @ 18:00 UTC (37 minutes ago) Visual Flight Rules
Wind Visibility Clouds
40° at 10 knots 10,000+ meters
  • Clear skies
Temperatures Readings
Current 18°C / 64°F
Dewpoint 14°C / 57°F
Humidity 78%
Altimeter 30.03" Hg
Pressure 1017 hPa
Elevation 25
METAR DAAG 201800Z 04010KT CAVOK 18/14 Q1017
Observed Flight Rules
Apr-20 @ 18:00 UTC
(37 minutes ago)
VFR
Wind Visibility
40° at 10 knots 10,000+ meters
Clouds
  • Clear skies
Temperature Dewpoint
18°C / 64°F 14°C / 57°F
Humidity Altimeter Pressure
78% 30.03" Hg 1017 hPa